Time;durP1;ratioP1;P1;durP2;ratioP2;P2;SDS_P1;SDS_P2;PMS_P1;PMS_P2;Temp;Humidity;BMP_temperature;BMP_pressure;BME280_temperature;BME280_humidity;BME280_pressure;Samples;Min_cycle;Max_cycle;Signal;HPM_P1;HPM_P2
2022/09/13 00:00:30;;;;;;;1.73;1.63;;;14.40;99.90;;;;;;4938592;29;20194;-85
2022/09/13 00:02:56;;;;;;;2.00;1.80;;;14.40;99.90;;;;;;4952160;29;20264;-86
2022/09/13 00:05:22;;;;;;;2.72;1.83;;;14.40;99.90;;;;;;4950506;28;20182;-84
2022/09/13 00:07:48;;;;;;;1.77;1.60;;;14.40;99.90;;;;;;4939765;29;20189;-86
2022/09/13 00:10:14;;;;;;;2.03;1.73;;;14.50;99.90;;;;;;4944224;29;20185;-86
2022/09/13 00:12:39;;;;;;;3.88;1.98;;;14.50;99.90;;;;;;4910522;29;1157514;-87
2022/09/13 00:15:06;;;;;;;2.65;1.63;;;14.50;99.90;;;;;;4956206;29;20240;-81
2022/09/13 00:17:31;;;;;;;2.03;1.77;;;14.50;99.90;;;;;;4945066;29;20244;-83
2022/09/13 00:19:57;;;;;;;2.03;1.73;;;14.50;99.90;;;;;;4942397;29;20621;-85
2022/09/13 00:22:23;;;;;;;3.75;2.00;;;14.50;99.90;;;;;;4959591;29;20517;-83
2022/09/13 00:24:48;;;;;;;3.92;1.73;;;14.50;99.90;;;;;;4958036;29;20292;-85
2022/09/13 00:27:16;;;;;;;1.85;1.67;;;14.50;99.90;;;;;;4942089;28;20192;-86
2022/09/13 00:29:42;;;;;;;6.63;1.80;;;14.50;99.90;;;;;;4957528;29;20244;-83
2022/09/13 00:32:07;;;;;;;2.22;1.85;;;14.50;99.90;;;;;;4959783;29;20181;-83
2022/09/13 00:34:33;;;;;;;2.00;1.80;;;14.50;99.90;;;;;;4943807;28;20189;-81
2022/09/13 00:36:58;;;;;;;4.68;1.90;;;14.60;99.90;;;;;;4939971;29;20296;-82
2022/09/13 00:39:24;;;;;;;3.28;1.85;;;14.60;99.90;;;;;;4939609;29;20629;-81
2022/09/13 00:41:50;;;;;;;4.35;2.00;;;14.60;99.90;;;;;;4939639;29;20242;-83
2022/09/13 00:45:06;;;;;;;3.25;1.80;;;14.70;99.90;;;;;;4951297;29;20185;-81
2022/09/13 00:47:47;;;;;;;2.25;1.75;;;14.70;99.90;;;;;;4932812;29;20638;-83
2022/09/13 00:50:28;;;;;;;4.88;1.73;;;14.60;99.90;;;;;;4956699;29;20188;-85
2022/09/13 00:53:02;;;;;;;5.15;1.85;;;14.70;99.90;;;;;;4942840;29;20692;-83
2022/09/13 00:56:08;;;;;;;8.20;2.05;;;14.70;99.90;;;;;;4950535;28;20196;-83
2022/09/13 00:58:52;;;;;;;3.45;2.05;;;14.70;99.90;;;;;;4937878;29;20275;-84
2022/09/13 01:01:22;;;;;;;3.25;1.83;;;14.70;99.90;;;;;;4938937;29;20186;-81
2022/09/13 01:03:48;;;;;;;2.58;1.90;;;14.70;99.90;;;;;;4931431;29;20232;-85
2022/09/13 01:06:24;;;;;;;2.00;1.80;;;14.70;99.90;;;;;;4938927;29;20186;-85
2022/09/13 01:08:52;;;;;;;2.33;1.80;;;14.70;99.90;;;;;;4957505;29;20631;-83
2022/09/13 01:12:03;;;;;;;3.15;1.90;;;14.70;99.90;;;;;;4950911;29;20256;-82
2022/09/13 01:14:30;;;;;;;4.78;1.83;;;14.70;99.90;;;;;;4941970;29;20194;-81
2022/09/13 01:16:56;;;;;;;3.65;1.85;;;14.70;99.90;;;;;;4937429;29;20222;-85
2022/09/13 01:19:22;;;;;;;2.85;1.95;;;14.70;99.90;;;;;;4942650;29;20711;-87
2022/09/13 01:21:48;;;;;;;4.82;2.40;;;14.70;99.90;;;;;;4942904;29;20186;-96
2022/09/13 01:24:19;;;;;;;3.88;1.90;;;14.60;99.90;;;;;;4954302;29;20189;-83
2022/09/13 01:26:56;;;;;;;2.58;1.60;;;14.60;99.90;;;;;;4952675;29;20684;-85
2022/09/13 01:29:46;;;;;;;2.42;1.85;;;14.60;99.90;;;;;;4946434;29;20193;-87
2022/09/13 01:32:32;;;;;;;2.17;1.55;;;14.60;99.90;;;;;;4939267;29;20637;-85
2022/09/13 01:35:20;;;;;;;3.70;2.13;;;14.70;99.90;;;;;;4933355;29;20226;-82
2022/09/13 01:38:00;;;;;;;2.67;2.10;;;14.60;99.90;;;;;;4946028;29;20213;-81
2022/09/13 01:41:02;;;;;;;3.13;2.30;;;14.60;99.90;;;;;;4945254;29;20239;-82
2022/09/13 01:43:56;;;;;;;3.50;1.90;;;14.60;99.90;;;;;;4955782;28;20722;-82
2022/09/13 01:46:48;;;;;;;1.67;1.58;;;14.70;99.90;;;;;;4955621;29;20197;-81
2022/09/13 01:49:30;;;;;;;3.00;1.80;;;14.70;99.90;;;;;;4946280;29;20173;-82
2022/09/13 01:52:07;;;;;;;2.30;1.80;;;14.60;99.90;;;;;;4956819;29;20181;-81
2022/09/13 01:54:47;;;;;;;3.67;2.10;;;14.50;99.90;;;;;;4956842;29;20181;-83
2022/09/13 01:57:24;;;;;;;3.58;1.77;;;14.50;99.90;;;;;;4956070;28;20219;-82
2022/09/13 02:00:11;;;;;;;2.90;1.75;;;14.40;99.90;;;;;;4943328;29;20240;-81
2022/09/13 02:02:51;;;;;;;2.40;1.90;;;14.40;99.90;;;;;;4938142;28;20251;-84
2022/09/13 02:05:38;;;;;;;2.10;1.70;;;14.40;99.90;;;;;;4936942;29;20220;-81
2022/09/13 02:08:39;;;;;;;5.05;2.17;;;14.40;99.90;;;;;;4938542;29;20180;-82
2022/09/13 02:11:23;;;;;;;6.45;2.45;;;14.40;99.90;;;;;;4924137;29;20276;-82
2022/09/13 02:13:59;;;;;;;5.85;2.10;;;14.40;99.90;;;;;;4936396;29;20237;-82
2022/09/13 02:16:43;;;;;;;4.72;2.22;;;14.40;99.90;;;;;;4955843;28;20195;-85
2022/09/13 02:19:34;;;;;;;2.67;2.08;;;14.50;99.90;;;;;;4951187;28;20182;-82
2022/09/13 02:22:02;;;;;;;2.80;1.90;;;14.50;99.90;;;;;;4939350;29;20201;-82
2022/09/13 02:24:39;;;;;;;3.92;2.03;;;14.50;99.90;;;;;;4930567;29;20629;-83
2022/09/13 02:27:10;;;;;;;3.10;2.20;;;14.50;99.90;;;;;;4936621;29;20516;-82
2022/09/13 02:29:38;;;;;;;5.05;1.65;;;14.50;99.90;;;;;;4937559;29;20190;-85
2022/09/13 02:32:25;;;;;;;3.05;2.00;;;14.50;99.90;;;;;;4953303;29;20650;-83
2022/09/13 02:34:57;;;;;;;3.15;2.22;;;14.60;99.90;;;;;;4956014;28;20587;-82
2022/09/13 02:37:24;;;;;;;3.42;2.10;;;14.50;99.90;;;;;;4944830;28;20228;-82
2022/09/13 02:39:57;;;;;;;2.55;2.00;;;14.60;99.90;;;;;;4939579;29;20192;-81
2022/09/13 02:42:32;;;;;;;2.95;2.03;;;14.60;99.90;;;;;;4937151;29;20650;-82
2022/09/13 02:45:00;;;;;;;4.60;2.20;;;14.60;99.90;;;;;;4935825;29;20189;-83
2022/09/13 02:47:43;;;;;;;3.42;2.28;;;14.60;99.90;;;;;;4935870;29;20190;-82
2022/09/13 02:50:33;;;;;;;2.72;1.90;;;14.70;99.90;;;;;;4936681;28;20178;-83
2022/09/13 02:53:02;;;;;;;3.55;2.47;;;14.80;99.90;;;;;;4937058;29;20301;-82
2022/09/13 02:55:58;;;;;;;4.25;2.00;;;14.80;99.90;;;;;;4938691;29;20233;-84
2022/09/13 02:58:44;;;;;;;2.67;2.03;;;14.80;99.90;;;;;;4946223;29;20208;-81
2022/09/13 03:01:10;;;;;;;2.63;2.20;;;14.90;99.90;;;;;;4947814;29;20186;-82
2022/09/13 03:03:36;;;;;;;3.45;2.03;;;15.00;99.90;;;;;;4944918;29;20202;-83
2022/09/13 03:06:02;;;;;;;3.15;2.28;;;15.00;99.90;;;;;;4935320;29;20185;-85
2022/09/13 03:08:28;;;;;;;3.85;2.20;;;15.00;99.90;;;;;;4944788;29;20487;-83
2022/09/13 03:11:02;;;;;;;6.35;2.72;;;15.10;99.90;;;;;;4931925;29;20237;-82
2022/09/13 03:13:39;;;;;;;3.60;2.10;;;15.10;99.90;;;;;;4954716;28;20224;-81
2022/09/13 03:16:18;;;;;;;3.58;2.53;;;15.10;99.90;;;;;;4936883;29;20193;-85
2022/09/13 03:19:00;;;;;;;3.70;2.22;;;15.20;99.90;;;;;;4942863;29;20303;-84
2022/09/13 03:21:47;;;;;;;3.42;2.40;;;15.20;99.90;;;;;;4928545;29;20186;-83
2022/09/13 03:24:25;;;;;;;2.95;2.35;;;15.20;99.90;;;;;;4936378;29;20513;-81
2022/09/13 03:26:59;;;;;;;9.00;2.50;;;15.30;99.90;;;;;;4936605;29;20213;-81
2022/09/13 03:30:00;;;;;;;4.10;2.58;;;15.30;99.90;;;;;;4944819;28;20651;-82
2022/09/13 03:32:45;;;;;;;4.57;2.67;;;15.30;99.90;;;;;;4945980;28;20214;-83
2022/09/13 03:35:30;;;;;;;3.88;2.97;;;15.30;99.90;;;;;;4947494;29;20189;-81
2022/09/13 03:38:00;;;;;;;7.03;2.97;;;15.30;99.90;;;;;;4933975;29;20228;-83
2022/09/13 03:40:32;;;;;;;7.70;3.10;;;15.20;99.90;;;;;;4942218;29;20181;-82
2022/09/13 03:43:04;;;;;;;8.40;2.95;;;15.10;99.90;;;;;;4947254;29;20181;-84
2022/09/13 03:45:36;;;;;;;7.00;3.30;;;15.10;99.90;;;;;;4952026;29;20533;-84
2022/09/13 03:48:03;;;;;;;4.70;3.20;;;15.00;99.90;;;;;;4944011;29;20193;-84
2022/09/13 03:50:30;;;;;;;4.10;3.05;;;15.10;99.90;;;;;;4941317;29;20189;-83
2022/09/13 03:53:02;;;;;;;4.80;3.33;;;15.00;99.90;;;;;;4947143;28;20537;-83
2022/09/13 03:55:31;;;;;;;5.63;3.50;;;15.00;99.90;;;;;;4936586;29;20186;-82
2022/09/13 03:57:56;;;;;;;6.70;3.85;;;15.00;99.90;;;;;;4940045;29;20220;-83
2022/09/13 04:00:22;;;;;;;5.78;3.45;;;15.00;99.90;;;;;;4940589;29;20265;-83
2022/09/13 04:02:48;;;;;;;5.22;3.50;;;15.00;99.90;;;;;;4943290;29;20631;-85
2022/09/13 04:05:14;;;;;;;6.05;3.75;;;15.00;99.90;;;;;;4935206;29;20213;-86
2022/09/13 04:07:40;;;;;;;5.55;4.63;;;15.00;99.90;;;;;;4941582;28;20272;-83
2022/09/13 04:10:06;;;;;;;7.60;4.30;;;15.00;99.90;;;;;;4955643;28;20185;-86
2022/09/13 04:12:32;;;;;;;7.47;4.38;;;15.00;99.90;;;;;;4952117;29;20244;-88
2022/09/13 04:14:57;;;;;;;9.05;4.25;;;15.00;99.90;;;;;;4934936;28;20182;-86
2022/09/13 04:17:23;;;;;;;5.40;3.97;;;15.00;99.90;;;;;;4936279;29;20217;-91
2022/09/13 04:19:49;;;;;;;5.68;4.03;;;15.00;99.90;;;;;;4941997;29;20184;-85
2022/09/13 04:22:14;;;;;;;6.03;4.13;;;15.00;99.90;;;;;;4941999;28;20607;-93
2022/09/13 04:24:42;;;;;;;4.85;4.00;;;15.00;99.90;;;;;;4936139;29;20185;-83
2022/09/13 04:27:08;;;;;;;5.85;4.00;;;15.00;99.90;;;;;;4936388;29;20178;-89
2022/09/13 04:29:33;;;;;;;6.95;3.92;;;14.90;99.90;;;;;;4936224;29;20531;-92
2022/09/13 04:31:59;;;;;;;7.80;4.30;;;14.90;99.90;;;;;;4935086;29;20190;-82
2022/09/13 04:34:25;;;;;;;4.70;4.13;;;15.00;99.90;;;;;;4934483;28;20605;-82
2022/09/13 04:36:51;;;;;;;8.32;4.35;;;15.00;99.90;;;;;;4934865;29;20222;-82
2022/09/13 04:39:19;;;;;;;6.25;4.18;;;15.00;99.90;;;;;;4944300;29;20177;-86
2022/09/13 04:41:45;;;;;;;6.18;4.07;;;15.00;99.90;;;;;;4938875;28;20294;-86
2022/09/13 04:44:11;;;;;;;5.47;4.30;;;15.00;99.90;;;;;;4939604;29;20291;-87
2022/09/13 04:46:37;;;;;;;7.07;4.45;;;15.00;99.90;;;;;;4939722;29;20189;-86
2022/09/13 04:49:03;;;;;;;5.55;4.25;;;15.10;99.90;;;;;;4942305;29;20190;-85
2022/09/13 04:51:29;;;;;;;6.95;4.30;;;15.10;99.90;;;;;;4945948;29;20213;-87
2022/09/13 04:53:55;;;;;;;5.95;4.38;;;15.10;99.90;;;;;;4949162;29;20185;-87
2022/09/13 04:56:22;;;;;;;5.32;4.00;;;15.10;99.90;;;;;;4938201;29;20196;-86
2022/09/13 04:58:54;;;;;;;5.85;4.30;;;15.10;99.90;;;;;;4947440;29;20210;-88
2022/09/13 05:01:21;;;;;;;5.20;4.43;;;15.10;99.90;;;;;;4939527;29;20567;-89
2022/09/13 05:03:47;;;;;;;6.22;4.38;;;15.10;99.90;;;;;;4937911;29;20678;-83
2022/09/13 05:06:16;;;;;;;7.15;4.32;;;15.10;99.90;;;;;;4937940;29;20675;-86
2022/09/13 05:08:43;;;;;;;6.18;4.18;;;15.10;99.90;;;;;;4939216;29;20373;-85
2022/09/13 05:11:09;;;;;;;6.03;4.53;;;15.10;99.90;;;;;;4938870;29;20217;-83
2022/09/13 05:13:35;;;;;;;5.47;4.78;;;15.10;99.90;;;;;;4954908;29;20676;-92
2022/09/13 05:16:04;;;;;;;5.80;3.92;;;15.20;99.90;;;;;;4942445;29;21261;-86
2022/09/13 05:18:33;;;;;;;7.38;4.57;;;15.20;99.90;;;;;;4949097;28;20248;-89
2022/09/13 05:21:01;;;;;;;7.53;4.20;;;15.20;99.90;;;;;;4939814;29;20181;-88
2022/09/13 05:23:28;;;;;;;7.03;4.25;;;15.20;99.90;;;;;;4939009;29;20629;-86
2022/09/13 05:25:59;;;;;;;6.88;4.43;;;15.20;99.90;;;;;;4937419;29;20193;-84
2022/09/13 05:28:27;;;;;;;5.57;4.20;;;15.30;99.90;;;;;;4938533;29;20182;-83
2022/09/13 05:30:55;;;;;;;5.32;4.20;;;15.30;99.90;;;;;;4952195;29;20186;-84
2022/09/13 05:33:20;;;;;;;6.32;3.95;;;15.30;99.90;;;;;;4937305;29;20272;-82
2022/09/13 05:35:46;;;;;;;4.60;4.07;;;15.30;99.90;;;;;;4938736;29;20692;-82
2022/09/13 05:38:11;;;;;;;6.20;3.55;;;15.30;99.90;;;;;;4944719;28;20217;-83
2022/09/13 05:40:37;;;;;;;4.55;3.78;;;15.30;99.90;;;;;;4943734;28;20217;-84
2022/09/13 05:43:03;;;;;;;6.15;3.88;;;15.30;99.90;;;;;;4954350;29;20272;-84
2022/09/13 05:45:28;;;;;;;5.30;4.03;;;15.40;99.90;;;;;;4946265;28;20209;-84
2022/09/13 05:47:54;;;;;;;8.05;3.72;;;15.40;99.90;;;;;;4943966;29;20584;-85
2022/09/13 05:50:20;;;;;;;7.85;4.07;;;15.40;99.90;;;;;;4950799;29;20640;-85
2022/09/13 05:52:54;;;;;;;5.47;4.20;;;15.40;99.90;;;;;;4937894;28;20509;-83
2022/09/13 05:55:20;;;;;;;5.70;4.20;;;15.50;99.90;;;;;;4938414;29;20287;-83
2022/09/13 05:57:47;;;;;;;5.03;4.47;;;15.50;99.90;;;;;;4949729;29;20228;-86
2022/09/13 06:00:14;;;;;;;8.13;5.00;;;15.60;99.90;;;;;;4956966;29;20188;-83
2022/09/13 06:02:40;;;;;;;6.22;4.53;;;15.50;99.90;;;;;;4956798;28;20177;-83
2022/09/13 06:05:09;;;;;;;6.00;4.45;;;15.60;99.90;;;;;;4956544;28;20610;-82
2022/09/13 06:07:35;;;;;;;8.38;4.70;;;15.60;99.90;;;;;;4955058;28;20188;-83
2022/09/13 06:10:03;;;;;;;6.28;4.50;;;15.60;99.90;;;;;;4955087;28;20687;-84
2022/09/13 06:12:29;;;;;;;5.65;4.60;;;15.60;99.90;;;;;;4952045;28;20241;-84
2022/09/13 06:14:54;;;;;;;8.50;4.47;;;15.70;99.90;;;;;;4936201;29;20186;-83
2022/09/13 06:17:20;;;;;;;6.15;4.32;;;15.70;99.90;;;;;;4936064;29;20205;-82
2022/09/13 06:19:46;;;;;;;5.55;4.40;;;15.70;99.90;;;;;;4937558;29;20572;-84
2022/09/13 06:22:11;;;;;;;6.50;4.57;;;15.80;99.90;;;;;;4935349;29;20637;-82
2022/09/13 06:24:37;;;;;;;7.80;4.57;;;15.80;99.90;;;;;;4935947;29;20182;-83
2022/09/13 06:27:03;;;;;;;6.70;4.50;;;15.80;99.90;;;;;;4937623;29;20177;-87
2022/09/13 06:29:29;;;;;;;5.68;4.45;;;15.80;99.90;;;;;;4936700;28;20182;-83
2022/09/13 06:31:55;;;;;;;8.43;4.60;;;15.90;99.90;;;;;;4937065;29;20167;-84
2022/09/13 06:34:20;;;;;;;5.85;5.03;;;15.90;99.90;;;;;;4935272;29;20277;-82
2022/09/13 06:36:46;;;;;;;6.85;4.88;;;15.90;99.90;;;;;;4935287;29;20220;-84
2022/09/13 06:39:11;;;;;;;5.25;4.38;;;16.00;99.90;;;;;;4937152;29;20182;-83
2022/09/13 06:41:37;;;;;;;7.50;4.55;;;16.00;99.90;;;;;;4936986;29;20198;-82
2022/09/13 06:44:03;;;;;;;6.70;4.30;;;16.00;99.90;;;;;;4935577;29;20186;-82
2022/09/13 06:46:32;;;;;;;6.15;4.25;;;16.10;99.90;;;;;;4936043;29;20512;-85
2022/09/13 06:49:03;;;;;;;5.32;4.65;;;16.10;99.90;;;;;;4936983;29;20209;-83
2022/09/13 06:51:29;;;;;;;6.47;4.82;;;16.10;99.90;;;;;;4935602;29;20631;-82
2022/09/13 06:53:55;;;;;;;8.20;4.18;;;16.20;99.90;;;;;;4935878;29;20193;-83
2022/09/13 06:56:29;;;;;;;6.07;4.40;;;16.20;99.90;;;;;;4937024;29;20177;-82
2022/09/13 06:59:01;;;;;;;9.07;5.03;;;16.30;99.90;;;;;;4937193;29;20184;-82
2022/09/13 07:01:29;;;;;;;7.63;4.22;;;16.30;99.90;;;;;;4936978;29;20622;-82
2022/09/13 07:04:02;;;;;;;4.55;3.70;;;16.30;99.90;;;;;;4936664;29;20188;-84
2022/09/13 07:06:30;;;;;;;5.13;4.28;;;16.40;99.90;;;;;;4935589;29;20174;-86
2022/09/13 07:08:57;;;;;;;6.25;4.45;;;16.50;99.90;;;;;;4935640;28;20188;-82
2022/09/13 07:11:28;;;;;;;6.57;4.38;;;16.50;99.90;;;;;;4935493;28;20692;-85
2022/09/13 07:13:56;;;;;;;5.03;4.35;;;16.60;99.90;;;;;;4941120;28;20193;-85
2022/09/13 07:16:24;;;;;;;7.13;4.35;;;16.70;99.90;;;;;;4955738;28;20184;-84
2022/09/13 07:18:53;;;;;;;5.30;4.00;;;16.80;99.90;;;;;;4953657;28;20216;-83
2022/09/13 07:21:21;;;;;;;7.40;4.57;;;16.90;99.90;;;;;;4935984;28;20178;-83
2022/09/13 07:23:46;;;;;;;4.68;4.10;;;17.00;99.90;;;;;;4936385;29;20170;-85
2022/09/13 07:26:12;;;;;;;4.82;4.20;;;17.10;99.90;;;;;;4936171;28;20197;-84
2022/09/13 07:28:40;;;;;;;5.97;4.25;;;17.10;99.90;;;;;;4935108;29;20174;-84
2022/09/13 07:31:13;;;;;;;6.53;4.43;;;17.10;99.90;;;;;;4936729;28;20190;-88
2022/09/13 07:33:41;;;;;;;4.13;3.72;;;17.10;99.90;;;;;;4935497;29;20181;-82
2022/09/13 07:36:08;;;;;;;4.43;3.95;;;17.20;99.90;;;;;;4935449;29;20189;-84
2022/09/13 07:38:35;;;;;;;4.30;3.42;;;17.20;99.90;;;;;;4936141;29;20216;-82
2022/09/13 07:41:05;;;;;;;4.68;4.10;;;17.30;99.90;;;;;;4943786;29;20170;-83
2022/09/13 07:43:34;;;;;;;7.55;4.40;;;17.30;99.90;;;;;;4935138;29;20182;-83
2022/09/13 07:46:20;;;;;;;4.15;3.75;;;17.40;99.90;;;;;;4935227;29;20295;-81
2022/09/13 07:48:47;;;;;;;4.53;3.90;;;17.50;99.90;;;;;;4934968;28;20213;-83
2022/09/13 07:51:20;;;;;;;5.75;4.15;;;17.60;99.90;;;;;;4936321;29;20178;-82
2022/09/13 07:53:48;;;;;;;6.30;3.80;;;17.60;99.90;;;;;;4936085;28;20189;-83
2022/09/13 07:56:19;;;;;;;4.80;3.92;;;17.80;99.90;;;;;;4936180;29;20676;-82
2022/09/13 07:58:46;;;;;;;4.53;3.45;;;17.90;99.90;;;;;;4944130;29;20216;-88
2022/09/13 08:01:15;;;;;;;5.45;3.58;;;17.90;99.90;;;;;;4955693;28;20201;-86
2022/09/13 08:03:41;;;;;;;4.53;3.45;;;17.90;99.90;;;;;;4955595;28;20206;-83
2022/09/13 08:06:07;;;;;;;4.72;3.47;;;18.00;99.90;;;;;;4955442;28;20174;-87
2022/09/13 08:08:34;;;;;;;5.25;4.00;;;18.10;99.90;;;;;;4954053;29;20181;-86
2022/09/13 08:11:01;;;;;;;5.40;3.60;;;18.20;99.90;;;;;;4955035;29;20181;-87
2022/09/13 08:13:27;;;;;;;6.78;4.00;;;18.20;99.90;;;;;;4947868;28;20186;-86
2022/09/13 08:15:54;;;;;;;7.72;3.80;;;18.20;99.90;;;;;;4936742;29;20186;-86
2022/09/13 08:18:21;;;;;;;9.30;3.63;;;18.20;99.90;;;;;;4939552;29;20213;-83
2022/09/13 08:20:46;;;;;;;5.18;3.60;;;18.10;99.90;;;;;;4939846;29;20193;-83
2022/09/13 08:23:13;;;;;;;4.47;3.67;;;18.00;99.90;;;;;;4939616;29;20178;-83
2022/09/13 08:25:39;;;;;;;6.40;3.97;;;17.90;99.90;;;;;;4938635;29;20186;-85
2022/09/13 08:28:07;;;;;;;5.63;4.03;;;17.80;99.90;;;;;;4938497;29;20505;-84
2022/09/13 08:30:35;;;;;;;4.38;3.97;;;17.70;99.90;;;;;;4939968;29;20174;-84
2022/09/13 08:33:03;;;;;;;6.75;5.03;;;17.60;99.90;;;;;;4938427;28;20185;-85
2022/09/13 08:35:29;;;;;;;6.50;4.30;;;17.50;99.90;;;;;;4938432;29;20182;-88
2022/09/13 08:37:56;;;;;;;7.35;4.18;;;17.30;99.90;;;;;;4938111;29;20548;-83
2022/09/13 08:40:24;;;;;;;6.80;4.93;;;17.20;99.90;;;;;;4938305;28;20229;-85
2022/09/13 08:43:11;;;;;;;7.65;4.63;;;17.10;99.90;;;;;;4952642;29;20235;-84
2022/09/13 08:45:37;;;;;;;7.10;5.07;;;17.20;99.90;;;;;;4945412;29;20617;-85
2022/09/13 08:48:30;;;;;;;5.75;4.85;;;17.20;99.90;;;;;;4939452;29;20186;-83
2022/09/13 08:51:01;;;;;;;5.88;4.50;;;17.20;99.90;;;;;;4939518;29;20178;-84
2022/09/13 08:53:31;;;;;;;5.43;4.90;;;17.20;99.90;;;;;;4939078;28;20606;-87
2022/09/13 08:56:11;;;;;;;7.15;6.00;;;17.20;99.90;;;;;;4937747;29;20178;-87
2022/09/13 08:58:48;;;;;;;8.82;6.00;;;17.10;99.90;;;;;;4938195;29;20653;-86
2022/09/13 09:01:43;;;;;;;8.93;6.03;;;17.00;99.90;;;;;;4939143;29;20213;-85
2022/09/13 09:04:25;;;;;;;9.38;6.90;;;17.10;99.90;;;;;;4940997;29;20559;-86
2022/09/13 09:07:11;;;;;;;9.73;6.85;;;17.10;99.90;;;;;;4957128;28;20196;-86
2022/09/13 09:09:57;;;;;;;7.72;6.88;;;17.20;99.90;;;;;;4956952;29;20228;-84
2022/09/13 09:12:50;;;;;;;11.77;6.78;;;17.20;99.90;;;;;;4958203;29;20240;-85
2022/09/13 09:15:25;;;;;;;8.13;6.43;;;17.30;99.90;;;;;;4956801;29;20169;-87
2022/09/13 09:18:01;;;;;;;8.88;6.65;;;17.30;99.90;;;;;;4956688;28;20212;-85
2022/09/13 09:20:32;;;;;;;10.07;8.38;;;17.30;99.90;;;;;;4942838;28;20186;-85
2022/09/13 09:23:02;;;;;;;10.32;7.88;;;17.40;99.90;;;;;;4937316;29;20615;-84
2022/09/13 09:25:28;;;;;;;10.00;7.75;;;17.50;99.90;;;;;;4936448;29;20283;-86
2022/09/13 09:27:55;;;;;;;10.88;8.40;;;17.50;99.90;;;;;;4937158;29;20613;-86
2022/09/13 09:30:22;;;;;;;10.63;7.82;;;17.50;99.90;;;;;;4936297;29;20241;-84
2022/09/13 09:33:22;;;;;;;12.68;8.85;;;17.70;99.90;;;;;;4937890;28;20242;-85
2022/09/13 09:35:53;;;;;;;10.82;7.18;;;17.90;99.90;;;;;;4936224;29;20221;-85
2022/09/13 09:38:41;;;;;;;9.77;7.75;;;18.00;99.90;;;;;;4935796;29;20224;-85
2022/09/13 09:41:28;;;;;;;11.55;7.18;;;18.00;99.90;;;;;;4936869;29;20170;-87
2022/09/13 09:44:01;;;;;;;10.60;7.07;;;17.90;99.90;;;;;;4936408;29;20177;-84
2022/09/13 09:46:31;;;;;;;10.55;6.53;;;17.90;99.90;;;;;;4939589;29;20169;-85
2022/09/13 09:52:05;;;;;;;9.75;6.72;;;17.70;99.90;;;;;;4937190;29;20172;-85
2022/09/13 09:54:33;;;;;;;12.02;7.03;;;17.70;99.90;;;;;;4937383;28;20584;-86
2022/09/13 09:57:00;;;;;;;13.18;7.72;;;17.60;99.90;;;;;;4936286;28;20194;-85
2022/09/13 09:59:33;;;;;;;8.88;6.65;;;17.60;99.90;;;;;;4935494;28;20689;-84
2022/09/13 10:02:16;;;;;;;11.02;7.03;;;17.60;99.90;;;;;;4936011;29;20182;-85
2022/09/13 10:04:42;;;;;;;10.30;6.45;;;17.70;99.90;;;;;;4937773;29;20217;-85
2022/09/13 10:07:26;;;;;;;9.93;7.07;;;17.70;99.90;;;;;;4936584;29;20644;-85
2022/09/13 10:09:58;;;;;;;13.70;7.55;;;17.80;99.90;;;;;;4935834;29;20192;-85
2022/09/13 10:12:30;;;;;;;10.55;7.10;;;17.90;99.90;;;;;;4937815;29;20244;-85
2022/09/13 10:15:17;;;;;;;12.63;7.85;;;17.90;99.90;;;;;;4937606;29;20162;-84
2022/09/13 10:17:44;;;;;;;11.07;7.18;;;18.00;99.90;;;;;;4936513;29;20261;-85
2022/09/13 10:20:13;;;;;;;10.98;7.47;;;18.00;99.90;;;;;;4938790;29;20186;-85
2022/09/13 10:22:39;;;;;;;13.07;7.80;;;18.00;99.90;;;;;;4937398;29;20170;-84
2022/09/13 10:25:22;;;;;;;11.40;7.50;;;18.00;99.90;;;;;;4937316;29;20201;-84
2022/09/13 10:27:53;;;;;;;10.98;7.55;;;18.00;99.90;;;;;;4936285;29;20178;-85
2022/09/13 10:30:47;;;;;;;10.70;7.18;;;17.90;99.90;;;;;;4937692;29;20704;-85
2022/09/13 10:33:37;;;;;;;11.57;8.65;;;17.90;99.90;;;;;;4933300;29;20686;-86
2022/09/13 10:36:20;;;;;;;10.30;7.90;;;17.90;99.90;;;;;;4935992;29;20178;-85
2022/09/13 10:38:59;;;;;;;14.02;7.85;;;17.80;99.90;;;;;;4937874;29;20236;-86
2022/09/13 10:41:29;;;;;;;12.10;8.48;;;17.90;99.90;;;;;;4917124;29;20179;-87
2022/09/13 10:44:00;;;;;;;9.38;7.57;;;17.90;99.90;;;;;;4916837;29;20266;-86
2022/09/13 10:46:30;;;;;;;12.23;8.85;;;17.90;99.90;;;;;;4918577;29;20210;-84
2022/09/13 10:48:56;;;;;;;9.48;7.63;;;17.90;99.90;;;;;;4919674;29;20204;-85
2022/09/13 10:51:25;;;;;;;12.63;8.07;;;17.90;99.90;;;;;;4936056;28;20182;-86
2022/09/13 10:54:05;;;;;;;10.98;7.60;;;18.00;99.90;;;;;;4935215;29;20230;-85
2022/09/13 10:56:31;;;;;;;11.27;8.25;;;18.00;99.90;;;;;;4937114;28;20708;-86
2022/09/13 10:59:30;;;;;;;12.02;8.98;;;18.00;99.90;;;;;;4936889;28;20260;-84
2022/09/13 11:02:04;;;;;;;12.10;7.63;;;17.90;99.90;;;;;;4904774;29;20241;-85
2022/09/13 11:04:36;;;;;;;16.17;8.05;;;17.90;99.90;;;;;;4936761;28;20192;-84
2022/09/13 11:07:25;;;;;;;13.35;8.43;;;17.90;99.90;;;;;;4935636;29;20530;-85
2022/09/13 11:10:15;;;;;;;14.75;8.80;;;17.90;99.90;;;;;;4938933;29;20597;-85
2022/09/13 11:13:13;;;;;;;13.80;9.18;;;17.90;99.90;;;;;;4954544;29;20240;-84
2022/09/13 11:15:59;;;;;;;16.60;9.93;;;17.90;99.90;;;;;;4954378;29;20256;-84
2022/09/13 11:19:02;;;;;;;16.38;10.68;;;18.00;99.90;;;;;;4936556;29;20233;-84
2022/09/13 11:21:37;;;;;;;16.15;9.73;;;18.00;99.90;;;;;;4917448;29;20258;-85
2022/09/13 11:24:39;;;;;;;20.30;11.65;;;18.00;99.90;;;;;;4915863;29;20550;-85
2022/09/13 11:27:26;;;;;;;19.73;13.13;;;18.00;99.90;;;;;;4916636;29;20637;-83
2022/09/13 11:30:20;;;;;;;18.38;11.73;;;18.00;99.90;;;;;;4917663;29;20182;-86
2022/09/13 11:33:12;;;;;;;19.15;11.00;;;18.00;99.90;;;;;;4935878;29;20185;-86
2022/09/13 11:36:15;;;;;;;18.67;11.93;;;18.10;99.90;;;;;;4934384;29;20178;-86
2022/09/13 11:38:50;;;;;;;21.10;12.50;;;18.00;99.90;;;;;;4931670;29;20221;-83
2022/09/13 11:41:27;;;;;;;16.85;11.68;;;18.00;99.90;;;;;;4934814;29;20272;-85
2022/09/13 11:44:09;;;;;;;17.83;11.63;;;18.00;99.90;;;;;;4938393;29;20699;-83
2022/09/13 11:46:53;;;;;;;18.83;11.63;;;18.10;99.90;;;;;;4955690;28;20236;-86
2022/09/13 11:49:48;;;;;;;17.83;10.68;;;18.20;99.90;;;;;;4950255;28;20205;-84
2022/09/13 11:52:54;;;;;;;16.02;10.18;;;18.20;99.90;;;;;;4922805;29;20276;-85
2022/09/13 11:55:32;;;;;;;15.13;10.73;;;18.10;99.90;;;;;;4884482;29;20500;-85
2022/09/13 11:58:03;;;;;;;15.05;9.25;;;18.10;99.90;;;;;;4934365;29;20292;-87
2022/09/13 12:00:41;;;;;;;12.95;9.63;;;18.10;99.90;;;;;;4938921;29;20204;-89
2022/09/13 12:03:17;;;;;;;18.23;11.30;;;18.10;99.90;;;;;;4940217;29;20166;-87
2022/09/13 12:06:10;;;;;;;18.80;11.90;;;18.30;99.90;;;;;;4940090;29;20173;-85
2022/09/13 12:08:41;;;;;;;17.65;11.55;;;18.20;99.90;;;;;;4949614;28;20192;-87
2022/09/13 12:11:14;;;;;;;16.30;11.25;;;18.20;99.90;;;;;;4958834;28;20295;-85
2022/09/13 12:13:42;;;;;;;18.25;10.82;;;18.20;99.90;;;;;;4957701;28;20189;-85
2022/09/13 12:16:14;;;;;;;15.65;10.50;;;18.20;99.90;;;;;;4957833;28;20177;-86
2022/09/13 12:18:53;;;;;;;15.35;10.57;;;18.20;99.90;;;;;;4956813;28;20217;-89
2022/09/13 12:21:36;;;;;;;14.13;10.77;;;18.20;99.90;;;;;;4938831;28;20180;-87
2022/09/13 12:24:13;;;;;;;16.48;10.70;;;18.20;99.90;;;;;;4938265;29;20644;-88
2022/09/13 12:26:48;;;;;;;15.25;10.73;;;18.30;99.90;;;;;;4938633;29;20281;-86
2022/09/13 12:29:26;;;;;;;14.60;10.30;;;18.20;99.90;;;;;;4938642;29;20197;-86
2022/09/13 12:31:57;;;;;;;13.40;9.57;;;18.30;99.90;;;;;;4938822;29;20305;-88
2022/09/13 12:34:32;;;;;;;14.00;9.85;;;18.30;99.90;;;;;;4942546;29;20703;-87
2022/09/13 12:37:14;;;;;;;14.60;10.35;;;18.30;99.90;;;;;;4957675;28;20225;-87
2022/09/13 12:39:59;;;;;;;18.48;11.93;;;18.30;99.90;;;;;;4958577;28;20655;-87
2022/09/13 12:42:59;;;;;;;12.60;9.20;;;18.30;99.90;;;;;;4957524;28;20186;-86
2022/09/13 12:45:42;;;;;;;18.67;11.82;;;18.30;99.90;;;;;;4957143;28;20193;-86
2022/09/13 12:48:55;;;;;;;13.73;9.75;;;18.40;99.90;;;;;;4957547;28;20165;-86
2022/09/13 12:51:44;;;;;;;17.90;11.63;;;18.50;99.90;;;;;;4918380;29;20652;-87
2022/09/13 12:54:46;;;;;;;21.27;11.82;;;18.60;99.90;;;;;;4919963;29;20170;-85
2022/09/13 12:57:20;;;;;;;17.17;10.90;;;18.70;99.90;;;;;;4918947;29;20209;-86
2022/09/13 13:00:07;;;;;;;14.50;10.65;;;18.80;99.90;;;;;;4918869;29;20634;-87
2022/09/13 13:02:50;;;;;;;12.02;9.45;;;19.00;99.90;;;;;;4918127;29;20178;-85
2022/09/13 13:05:34;;;;;;;12.73;9.70;;;19.00;99.90;;;;;;4920006;29;20167;-85
2022/09/13 13:08:14;;;;;;;12.27;9.27;;;19.00;99.90;;;;;;4954875;29;20193;-86
2022/09/13 13:10:40;;;;;;;15.10;9.55;;;19.20;99.90;;;;;;4957997;28;20276;-85
2022/09/13 13:13:29;;;;;;;14.10;8.20;;;19.20;99.90;;;;;;4957975;28;20818;-85
2022/09/13 13:15:58;;;;;;;10.38;8.13;;;19.30;99.90;;;;;;4956453;28;20201;-86
2022/09/13 13:18:31;;;;;;;11.70;8.02;;;19.20;99.90;;;;;;4956690;28;20308;-86
2022/09/13 13:20:56;;;;;;;10.35;6.85;;;19.30;99.90;;;;;;4939040;28;20186;-86